createdAt,value
2017-11-08T00:00:38.006Z,97.10
2017-11-08T00:03:05.430Z,97.10
2017-11-08T00:05:34.341Z,97.20
2017-11-08T00:08:02.104Z,97.20
2017-11-08T00:10:29.573Z,97.20
2017-11-08T00:12:57.065Z,97.20
2017-11-08T00:15:24.497Z,97.20
2017-11-08T00:17:55.890Z,97.20
2017-11-08T00:20:23.368Z,97.20
2017-11-08T00:22:51.592Z,97.30
2017-11-08T00:25:19.042Z,97.30
2017-11-08T00:27:47.651Z,97.40
2017-11-08T00:30:15.092Z,97.40
2017-11-08T00:32:42.576Z,97.30
2017-11-08T00:35:10.037Z,97.40
2017-11-08T00:37:37.515Z,97.40
2017-11-08T00:40:06.545Z,97.30
2017-11-08T00:42:33.974Z,97.30
2017-11-08T00:45:01.401Z,97.30
2017-11-08T00:47:31.735Z,97.70
2017-11-08T00:49:59.928Z,97.50
2017-11-08T00:52:29.292Z,97.50
2017-11-08T00:54:56.819Z,97.40
2017-11-08T00:57:30.026Z,97.50
2017-11-08T00:59:59.416Z,97.50
2017-11-08T01:02:27.617Z,97.50
2017-11-08T01:04:55.046Z,97.50
2017-11-08T01:07:22.477Z,98.00
2017-11-08T01:09:54.270Z,97.60
2017-11-08T01:12:21.697Z,97.70
2017-11-08T01:15:09.429Z,97.70
2017-11-08T01:17:36.850Z,97.70
2017-11-08T01:20:05.077Z,97.80
2017-11-08T01:22:32.508Z,97.70
2017-11-08T01:24:59.931Z,97.70
2017-11-08T01:27:27.885Z,97.60
2017-11-08T01:29:55.309Z,97.60
2017-11-08T01:32:22.752Z,97.50
2017-11-08T01:34:50.168Z,97.30
2017-11-08T01:37:23.324Z,97.50
2017-11-08T01:39:50.753Z,97.20
2017-11-08T01:42:18.198Z,97.30
2017-11-08T01:44:48.427Z,97.10
2017-11-08T01:47:16.624Z,97.30
2017-11-08T01:49:47.372Z,97.30
2017-11-08T01:52:16.737Z,97.30
2017-11-08T01:54:44.915Z,97.20
2017-11-08T01:57:14.872Z,97.20
2017-11-08T01:59:43.525Z,97.20
2017-11-08T02:02:11.785Z,97.20
2017-11-08T02:04:39.987Z,97.30
2017-11-08T02:07:07.425Z,97.30
2017-11-08T02:09:34.849Z,97.40
2017-11-08T02:12:07.625Z,97.30
2017-11-08T02:14:35.057Z,97.30
2017-11-08T02:17:02.497Z,97.10
2017-11-08T02:19:30.188Z,97.10
2017-11-08T02:21:58.217Z,97.10
2017-11-08T02:24:27.413Z,97.10
2017-11-08T02:27:00.528Z,97.00
2017-11-08T02:29:29.732Z,96.90
2017-11-08T02:31:58.463Z,96.70
2017-11-08T02:34:26.660Z,96.80
2017-11-08T02:36:54.822Z,96.80
2017-11-08T02:39:23.010Z,97.00
2017-11-08T02:41:50.436Z,97.00
2017-11-08T02:44:18.629Z,96.70
2017-11-08T02:46:46.564Z,96.70
2017-11-08T02:49:13.987Z,96.80
2017-11-08T02:51:41.825Z,96.90
2017-11-08T02:54:09.261Z,96.90
2017-11-08T02:56:36.688Z,97.00
2017-11-08T02:59:04.322Z,97.10
2017-11-08T03:01:31.761Z,96.90
2017-11-08T03:04:13.891Z,96.90
2017-11-08T03:07:00.913Z,96.90
2017-11-08T03:09:28.356Z,97.00
2017-11-08T03:11:56.169Z,97.10
2017-11-08T03:14:23.603Z,97.20
2017-11-08T03:16:51.037Z,97.40
2017-11-08T03:19:18.486Z,97.20
2017-11-08T03:21:45.908Z,97.30
2017-11-08T03:24:14.099Z,97.20
2017-11-08T03:26:41.524Z,97.20
2017-11-08T03:29:09.564Z,97.10
2017-11-08T03:31:37.425Z,97.20
2017-11-08T03:34:05.558Z,97.20
2017-11-08T03:36:33.254Z,97.20
2017-11-08T03:39:00.657Z,97.30
2017-11-08T03:41:28.092Z,97.40
2017-11-08T03:43:55.515Z,97.40
2017-11-08T03:46:22.953Z,97.40
2017-11-08T03:48:50.385Z,97.40
2017-11-08T03:51:18.256Z,97.40
2017-11-08T03:53:46.446Z,97.60
2017-11-08T03:56:14.650Z,97.70
2017-11-08T03:58:42.416Z,97.70
2017-11-08T04:01:09.852Z,97.80
2017-11-08T04:03:37.276Z,98.10
2017-11-08T04:06:04.700Z,98.20
2017-11-08T04:08:32.124Z,98.50
2017-11-08T04:10:59.552Z,98.70
2017-11-08T04:13:27.197Z,99.10
2017-11-08T04:15:54.904Z,99.30
2017-11-08T04:18:22.345Z,99.50
2017-11-08T04:20:50.544Z,99.90
2017-11-08T04:23:18.409Z,99.90
2017-11-08T04:25:45.825Z,99.90
2017-11-08T04:28:13.537Z,99.90
2017-11-08T04:30:40.961Z,99.90
2017-11-08T04:33:09.745Z,99.90
2017-11-08T04:35:38.736Z,99.90
2017-11-08T04:38:06.930Z,99.90
2017-11-08T04:40:34.344Z,99.90
2017-11-08T04:43:02.205Z,99.90
2017-11-08T04:45:29.633Z,99.90
2017-11-08T04:47:57.477Z,99.90
2017-11-08T04:50:24.925Z,99.90
2017-11-08T04:52:53.123Z,99.90
2017-11-08T04:55:20.546Z,99.90
2017-11-08T04:57:51.196Z,99.90
2017-11-08T05:00:18.622Z,99.90
2017-11-08T05:02:48.631Z,99.90
2017-11-08T05:05:16.387Z,99.90
2017-11-08T05:07:45.653Z,99.90
2017-11-08T05:10:14.569Z,99.90
2017-11-08T05:12:42.496Z,99.90
2017-11-08T05:15:10.626Z,99.90
2017-11-08T05:17:38.055Z,99.90
2017-11-08T05:20:05.476Z,99.90
2017-11-08T05:22:33.673Z,99.90
2017-11-08T05:25:02.249Z,99.90
2017-11-08T05:27:29.681Z,99.90
2017-11-08T05:29:57.878Z,99.90
2017-11-08T05:32:25.310Z,99.90
2017-11-08T05:34:53.508Z,99.90
2017-11-08T05:37:20.996Z,99.90
2017-11-08T05:39:48.416Z,99.90
2017-11-08T05:42:16.433Z,99.90
2017-11-08T05:44:44.641Z,99.90
2017-11-08T05:47:13.272Z,99.90
2017-11-08T05:49:40.699Z,99.90
2017-11-08T05:52:08.134Z,99.90
2017-11-08T05:54:36.820Z,99.90
2017-11-08T05:57:05.016Z,99.90
2017-11-08T05:59:32.440Z,99.90
2017-11-08T06:01:59.872Z,99.90
2017-11-08T06:04:27.970Z,99.90
2017-11-08T06:06:55.384Z,99.90
2017-11-08T06:09:23.225Z,99.90
2017-11-08T06:11:50.652Z,99.90
2017-11-08T06:14:18.080Z,99.90
2017-11-08T06:16:45.512Z,99.90
2017-11-08T06:19:12.933Z,99.90
2017-11-08T06:21:41.133Z,99.90
2017-11-08T06:24:08.548Z,99.90
2017-11-08T06:26:35.980Z,99.90
2017-11-08T06:29:03.403Z,99.90
2017-11-08T06:31:31.564Z,99.90
2017-11-08T06:33:59.756Z,99.90
2017-11-08T06:36:27.192Z,99.90
2017-11-08T06:38:55.381Z,99.90
2017-11-08T06:41:22.795Z,99.90
2017-11-08T06:43:50.238Z,99.90
2017-11-08T06:46:18.081Z,99.90
2017-11-08T06:48:45.514Z,99.90
2017-11-08T06:51:15.369Z,99.90
2017-11-08T06:53:42.806Z,99.90
2017-11-08T06:56:10.224Z,99.90
2017-11-08T06:58:38.432Z,99.90
2017-11-08T07:01:05.860Z,99.90
2017-11-08T07:03:33.293Z,99.90
2017-11-08T07:06:00.727Z,99.90
2017-11-08T07:08:30.264Z,99.90
2017-11-08T07:11:03.480Z,99.90
2017-11-08T07:13:37.950Z,99.90
2017-11-08T07:16:06.307Z,99.90
2017-11-08T07:18:34.459Z,99.90
2017-11-08T07:21:01.882Z,99.90
2017-11-08T07:23:29.314Z,99.90
2017-11-08T07:25:56.750Z,99.90
2017-11-08T07:28:24.536Z,99.90
2017-11-08T07:30:52.567Z,99.90
2017-11-08T07:33:19.991Z,99.90
2017-11-08T07:35:47.417Z,99.90
2017-11-08T07:38:14.844Z,99.90
2017-11-08T07:40:42.273Z,99.90
2017-11-08T07:43:10.472Z,99.90
2017-11-08T07:45:38.108Z,99.90
2017-11-08T07:48:06.302Z,99.90
2017-11-08T07:50:34.280Z,99.90
2017-11-08T07:53:01.714Z,99.90
2017-11-08T07:55:35.664Z,99.90
2017-11-08T07:58:05.022Z,99.90
2017-11-08T08:00:33.203Z,99.90
2017-11-08T08:03:01.400Z,99.90
2017-11-08T08:05:28.824Z,99.90
2017-11-08T08:07:57.794Z,99.90
2017-11-08T08:10:25.220Z,99.90
2017-11-08T08:12:52.647Z,99.90
2017-11-08T08:15:20.068Z,99.90
2017-11-08T08:17:47.513Z,99.90
2017-11-08T08:20:14.945Z,99.90
2017-11-08T08:22:42.375Z,99.90
2017-11-08T08:25:10.573Z,99.90
2017-11-08T08:27:38.443Z,99.90
2017-11-08T08:30:06.433Z,99.90
2017-11-08T08:32:34.699Z,99.90
2017-11-08T08:35:02.888Z,99.90
2017-11-08T08:37:30.327Z,99.90
2017-11-08T08:39:58.012Z,99.90
2017-11-08T08:42:25.422Z,99.90
2017-11-08T08:44:52.849Z,99.90
2017-11-08T08:47:20.272Z,99.90
2017-11-08T08:49:48.233Z,99.90
2017-11-08T08:52:15.676Z,99.90
2017-11-08T08:54:43.097Z,99.90
2017-11-08T08:57:11.289Z,99.90
2017-11-08T08:59:39.322Z,99.90
2017-11-08T09:02:12.750Z,99.90
2017-11-08T09:04:40.933Z,99.90
2017-11-08T09:07:08.365Z,99.90
2017-11-08T09:09:36.556Z,99.90
2017-11-08T09:12:03.986Z,99.90
2017-11-08T09:14:31.414Z,99.90
2017-11-08T09:16:58.835Z,99.90
2017-11-08T09:19:26.260Z,99.90
2017-11-08T09:21:54.448Z,99.90
2017-11-08T09:24:22.689Z,99.90
2017-11-08T09:26:50.172Z,99.90
2017-11-08T09:29:17.611Z,99.90
2017-11-08T09:31:58.837Z,99.90
2017-11-08T09:34:27.589Z,99.90
2017-11-08T09:36:57.461Z,99.90
2017-11-08T09:39:25.884Z,99.90
2017-11-08T09:44:57.812Z,99.90
2017-11-08T09:47:26.014Z,99.90
2017-11-08T09:49:53.928Z,99.90
2017-11-08T09:52:21.370Z,99.90
2017-11-08T09:54:48.800Z,99.90
2017-11-08T09:57:16.239Z,99.90
2017-11-08T09:59:43.656Z,99.90
2017-11-08T10:02:11.077Z,99.90
2017-11-08T10:04:38.516Z,99.90
2017-11-08T10:07:05.949Z,99.90
2017-11-08T10:09:37.082Z,99.90
2017-11-08T10:12:11.925Z,99.90
2017-11-08T10:14:40.674Z,99.90
2017-11-08T10:17:10.931Z,99.90
2017-11-08T10:19:39.133Z,99.90
2017-11-08T10:22:09.508Z,99.90
2017-11-08T10:24:37.141Z,99.90
2017-11-08T10:27:04.656Z,99.90
2017-11-08T10:29:32.031Z,99.90
2017-11-08T10:31:59.448Z,99.90
2017-11-08T10:34:27.664Z,99.90
2017-11-08T10:36:55.159Z,99.90
2017-11-08T10:39:23.720Z,99.90
2017-11-08T10:41:51.145Z,99.90
2017-11-08T10:44:18.561Z,99.90
2017-11-08T10:46:47.735Z,99.90
2017-11-08T10:49:20.912Z,99.90
2017-11-08T10:51:48.342Z,99.90
2017-11-08T10:54:15.798Z,99.90
2017-11-08T10:56:43.227Z,99.90
2017-11-08T10:59:16.415Z,99.90
2017-11-08T11:01:43.866Z,99.90
2017-11-08T11:04:11.304Z,99.90
2017-11-08T11:06:39.496Z,99.90
2017-11-08T11:09:06.938Z,99.90
2017-11-08T11:11:34.377Z,99.90
2017-11-08T11:14:07.388Z,99.90
2017-11-08T11:16:35.576Z,99.90
2017-11-08T11:19:03.014Z,99.90
2017-11-08T11:21:31.207Z,99.90
2017-11-08T11:24:01.992Z,99.90
2017-11-08T11:26:34.453Z,99.90
2017-11-08T11:29:01.879Z,99.90
2017-11-08T11:31:29.311Z,99.90
2017-11-08T11:33:56.747Z,99.90
2017-11-08T11:36:24.179Z,99.90
2017-11-08T11:38:54.410Z,99.90
2017-11-08T11:41:22.564Z,99.90
2017-11-08T11:43:50.007Z,99.90
2017-11-08T11:46:18.187Z,99.90
2017-11-08T11:48:49.448Z,99.90
2017-11-08T11:51:22.492Z,99.90
2017-11-08T11:53:49.925Z,99.90
2017-11-08T11:56:17.366Z,99.90
2017-11-08T11:58:44.808Z,99.90
2017-11-08T12:01:12.237Z,99.90
2017-11-08T12:03:40.428Z,99.90
2017-11-08T12:06:08.289Z,99.90
2017-11-08T12:08:35.730Z,99.90
2017-11-08T12:11:03.955Z,99.90
2017-11-08T12:13:38.045Z,99.90
2017-11-08T12:16:07.904Z,99.90
2017-11-08T12:18:35.344Z,99.90
2017-11-08T12:21:02.761Z,99.90
2017-11-08T12:23:30.501Z,99.90
2017-11-08T12:25:57.920Z,99.90
2017-11-08T12:28:30.977Z,99.90
2017-11-08T12:31:03.076Z,99.90
2017-11-08T12:33:36.918Z,99.90
2017-11-08T12:36:04.345Z,99.90
2017-11-08T12:38:32.507Z,99.90
2017-11-08T12:40:59.927Z,99.90
2017-11-08T12:43:30.018Z,99.90
2017-11-08T12:46:01.126Z,99.90
2017-11-08T12:48:28.998Z,99.90
2017-11-08T12:50:56.435Z,99.90
2017-11-08T12:53:23.862Z,99.90
2017-11-08T12:55:52.084Z,99.90
2017-11-08T12:58:22.050Z,99.90
2017-11-08T13:00:50.249Z,99.90
2017-11-08T13:03:17.713Z,99.90
2017-11-08T13:05:50.762Z,99.90
2017-11-08T13:08:19.146Z,99.90
2017-11-08T13:13:53.637Z,99.90
2017-11-08T13:16:21.055Z,99.90
2017-11-08T13:18:49.341Z,99.90
2017-11-08T13:21:17.538Z,99.90
2017-11-08T13:23:44.974Z,99.90
2017-11-08T13:26:13.060Z,99.90
2017-11-08T13:28:40.502Z,99.90
2017-11-08T13:31:07.932Z,99.90
2017-11-08T13:33:35.683Z,99.90
2017-11-08T13:36:03.137Z,99.90
2017-11-08T13:38:30.765Z,99.90
2017-11-08T13:40:58.384Z,99.90
2017-11-08T13:43:26.591Z,99.90
2017-11-08T13:45:54.950Z,99.90
2017-11-08T13:48:23.228Z,99.90
2017-11-08T13:50:51.857Z,99.90
2017-11-08T13:53:19.320Z,99.90
2017-11-08T13:55:46.737Z,99.90
2017-11-08T13:58:14.161Z,99.90
2017-11-08T14:00:41.597Z,99.90
2017-11-08T14:03:09.032Z,99.90
2017-11-08T14:05:36.696Z,99.90
2017-11-08T14:08:04.117Z,99.90
2017-11-08T14:10:32.320Z,99.90
2017-11-08T14:12:59.752Z,99.90
2017-11-08T14:15:28.369Z,99.90
2017-11-08T14:17:55.800Z,99.90
2017-11-08T14:20:23.230Z,99.90
2017-11-08T14:22:52.578Z,99.90
2017-11-08T14:25:20.006Z,99.90
2017-11-08T14:27:48.196Z,99.90
2017-11-08T14:30:15.639Z,99.90
2017-11-08T14:32:43.839Z,99.90
2017-11-08T14:35:12.131Z,99.90
2017-11-08T14:37:39.562Z,99.90
2017-11-08T14:40:07.040Z,99.90
2017-11-08T14:42:39.137Z,99.90
2017-11-08T14:45:06.581Z,99.90
2017-11-08T14:47:34.012Z,99.90
2017-11-08T14:50:01.437Z,99.90
2017-11-08T14:52:30.470Z,99.90
2017-11-08T14:54:57.920Z,99.90
2017-11-08T14:57:25.338Z,99.90
2017-11-08T14:59:53.543Z,99.90
2017-11-08T15:02:21.167Z,99.90
2017-11-08T15:04:48.648Z,99.90
2017-11-08T15:07:16.834Z,99.90
2017-11-08T15:09:44.270Z,99.90
2017-11-08T15:12:12.465Z,99.90
2017-11-08T15:14:42.696Z,99.90
2017-11-08T15:17:10.541Z,99.90
2017-11-08T15:19:44.384Z,99.90
2017-11-08T15:22:11.824Z,99.90
2017-11-08T15:24:39.261Z,99.90
2017-11-08T15:27:07.469Z,99.90
2017-11-08T15:29:36.851Z,99.90
2017-11-08T15:32:04.699Z,99.90
2017-11-08T15:34:34.728Z,99.90
2017-11-08T15:37:02.946Z,99.90
2017-11-08T15:39:30.597Z,99.90
2017-11-08T15:41:58.042Z,99.90
2017-11-08T15:44:25.468Z,99.90
2017-11-08T15:46:54.452Z,99.90
2017-11-08T15:49:22.657Z,99.90
2017-11-08T15:51:50.082Z,99.90
2017-11-08T15:54:18.708Z,99.90
2017-11-08T15:56:46.134Z,99.90
2017-11-08T15:59:14.402Z,99.90
2017-11-08T16:01:45.058Z,99.90
2017-11-08T16:04:12.511Z,99.90
2017-11-08T16:06:40.707Z,99.90
2017-11-08T16:09:10.041Z,99.90
2017-11-08T16:11:37.478Z,99.90
2017-11-08T16:14:05.489Z,99.90
2017-11-08T16:16:33.711Z,99.90
2017-11-08T16:19:03.098Z,99.90
2017-11-08T16:21:31.601Z,99.90
2017-11-08T16:23:59.015Z,99.90
2017-11-08T16:26:27.274Z,99.90
2017-11-08T16:28:54.733Z,99.90
2017-11-08T16:31:22.175Z,99.90
2017-11-08T16:33:50.570Z,99.90
2017-11-08T16:36:18.023Z,99.90
2017-11-08T16:38:45.463Z,99.90
2017-11-08T16:41:13.724Z,99.90
2017-11-08T16:43:41.265Z,99.90
2017-11-08T16:46:08.711Z,99.90
2017-11-08T16:48:36.150Z,99.90
2017-11-08T16:51:04.879Z,99.90
2017-11-08T16:53:32.323Z,99.90
2017-11-08T16:55:59.772Z,99.90
2017-11-08T16:58:28.113Z,99.90
2017-11-08T17:00:56.505Z,99.90
2017-11-08T17:03:24.715Z,99.90
2017-11-08T17:05:52.213Z,99.90
2017-11-08T17:08:20.629Z,99.90
2017-11-08T17:10:48.838Z,99.90
2017-11-08T17:13:16.285Z,99.90
2017-11-08T17:15:43.726Z,99.90
2017-11-08T17:18:11.173Z,99.90
2017-11-08T17:20:39.371Z,99.90
2017-11-08T17:23:07.330Z,99.90
2017-11-08T17:25:34.780Z,99.90
2017-11-08T17:28:02.665Z,99.90
2017-11-08T17:30:30.374Z,99.90
2017-11-08T17:32:57.802Z,99.90
2017-11-08T17:35:25.767Z,99.90
2017-11-08T17:37:53.730Z,99.90
2017-11-08T17:40:21.732Z,99.90
2017-11-08T17:42:50.272Z,99.90
2017-11-08T17:45:18.198Z,99.90
2017-11-08T17:47:46.261Z,99.90
2017-11-08T17:50:14.794Z,99.90
2017-11-08T17:52:42.231Z,99.90
2017-11-08T17:55:10.124Z,99.90
2017-11-08T17:57:38.207Z,99.90
2017-11-08T18:00:05.709Z,99.90
2017-11-08T18:02:33.952Z,99.90
2017-11-08T18:05:02.201Z,99.90
2017-11-08T18:07:29.652Z,99.90
2017-11-08T18:09:57.089Z,99.90
2017-11-08T18:12:25.279Z,99.90
2017-11-08T18:14:52.726Z,99.90
2017-11-08T18:17:20.167Z,99.90
2017-11-08T18:19:48.364Z,99.90
2017-11-08T18:22:16.378Z,99.90
2017-11-08T18:24:43.816Z,99.90
2017-11-08T18:27:11.242Z,99.90
2017-11-08T18:29:38.678Z,99.90
2017-11-08T18:32:06.870Z,99.90
2017-11-08T18:34:34.313Z,99.90
2017-11-08T18:37:02.501Z,99.90
2017-11-08T18:39:30.238Z,99.90
2017-11-08T18:41:57.657Z,99.90
2017-11-08T18:44:26.289Z,99.90
2017-11-08T18:46:54.539Z,99.90
2017-11-08T18:49:21.954Z,99.90
2017-11-08T18:51:49.391Z,99.90
2017-11-08T18:54:17.576Z,99.90
2017-11-08T18:56:45.335Z,99.90
2017-11-08T18:59:14.500Z,99.90
2017-11-08T19:01:42.624Z,99.90
2017-11-08T19:04:10.064Z,99.90
2017-11-08T19:06:38.833Z,99.90
2017-11-08T19:09:07.026Z,99.90
2017-11-08T19:11:34.476Z,99.90
2017-11-08T19:14:02.674Z,99.90
2017-11-08T19:16:30.298Z,99.90
2017-11-08T19:18:58.767Z,99.90
2017-11-08T19:21:26.197Z,99.90
2017-11-08T19:23:53.630Z,99.90
2017-11-08T19:26:21.065Z,99.90
2017-11-08T19:28:48.504Z,99.90
2017-11-08T19:31:15.933Z,99.90
2017-11-08T19:33:43.370Z,99.90
2017-11-08T19:36:10.829Z,99.90
2017-11-08T19:38:38.317Z,99.90
2017-11-08T19:41:07.645Z,99.90
2017-11-08T19:43:35.822Z,99.90
2017-11-08T19:46:03.270Z,99.90
2017-11-08T19:48:30.680Z,99.90
2017-11-08T19:50:58.124Z,99.90
2017-11-08T19:53:25.665Z,99.90
2017-11-08T19:55:53.112Z,99.90
2017-11-08T19:58:21.298Z,99.90
2017-11-08T20:00:49.126Z,99.90
2017-11-08T20:03:16.541Z,99.90
2017-11-08T20:05:44.090Z,99.90
2017-11-08T20:08:11.521Z,99.90
2017-11-08T20:10:40.279Z,99.90
2017-11-08T20:13:08.113Z,99.90
2017-11-08T20:15:42.089Z,99.90
2017-11-08T20:18:09.530Z,99.90
2017-11-08T20:20:37.946Z,99.90
2017-11-08T20:23:05.382Z,99.90
2017-11-08T20:25:32.843Z,99.90
2017-11-08T20:28:00.274Z,99.90
2017-11-08T20:30:28.495Z,99.90
2017-11-08T20:32:55.918Z,99.90
2017-11-08T20:35:24.124Z,99.90
2017-11-08T20:37:54.940Z,99.90
2017-11-08T20:40:22.373Z,99.90
2017-11-08T20:42:50.581Z,99.90
2017-11-08T20:45:18.006Z,99.90
2017-11-08T20:47:46.505Z,99.90
2017-11-08T20:50:14.705Z,99.90
2017-11-08T20:52:42.194Z,99.90
2017-11-08T20:55:10.328Z,99.90
2017-11-08T20:57:37.757Z,99.90
2017-11-08T21:00:05.964Z,99.90
2017-11-08T21:02:33.386Z,99.90
2017-11-08T21:05:02.098Z,99.90
2017-11-08T21:07:29.947Z,99.90
2017-11-08T21:09:58.130Z,99.90
2017-11-08T21:12:25.566Z,99.90
2017-11-08T21:14:53.761Z,99.90
2017-11-08T21:17:21.206Z,99.90
2017-11-08T21:19:49.399Z,99.90
2017-11-08T21:22:17.226Z,99.90
2017-11-08T21:24:45.324Z,99.90
2017-11-08T21:27:13.530Z,99.90
2017-11-08T21:29:41.286Z,99.90
2017-11-08T21:32:08.716Z,99.90
2017-11-08T21:34:37.639Z,99.90
2017-11-08T21:37:05.092Z,99.90
2017-11-08T21:39:33.135Z,99.90
2017-11-08T21:42:01.322Z,99.90
2017-11-08T21:44:28.770Z,99.90
2017-11-08T21:46:57.234Z,99.90
2017-11-08T21:49:24.655Z,99.90
2017-11-08T21:51:52.086Z,99.90
2017-11-08T21:54:19.532Z,99.90
2017-11-08T21:56:47.551Z,99.90
2017-11-08T21:59:15.000Z,99.90
2017-11-08T22:01:42.433Z,99.90
2017-11-08T22:04:09.874Z,99.90
2017-11-08T22:06:37.318Z,99.90
2017-11-08T22:09:05.519Z,99.90
2017-11-08T22:11:33.032Z,99.90
2017-11-08T22:14:00.998Z,99.90
2017-11-08T22:16:28.448Z,99.90
2017-11-08T22:18:56.351Z,99.90
2017-11-08T22:21:23.786Z,99.90
2017-11-08T22:23:51.223Z,99.90
2017-11-08T22:26:18.659Z,99.90
2017-11-08T22:28:46.115Z,99.90
2017-11-08T22:31:13.533Z,99.90
2017-11-08T22:33:40.970Z,99.90
2017-11-08T22:36:09.211Z,99.90
2017-11-08T22:38:36.652Z,99.90
2017-11-08T22:41:04.082Z,99.90
2017-11-08T22:43:31.898Z,99.90
2017-11-08T22:45:59.326Z,99.90
2017-11-08T22:48:26.770Z,99.90
2017-11-08T22:50:54.244Z,99.90
2017-11-08T22:53:21.869Z,99.90
2017-11-08T22:55:51.987Z,99.90
2017-11-08T22:58:20.725Z,99.90
2017-11-08T23:00:48.169Z,99.90
2017-11-08T23:03:15.602Z,99.90
2017-11-08T23:05:43.046Z,99.90
2017-11-08T23:08:12.022Z,99.90
2017-11-08T23:10:41.408Z,99.90
2017-11-08T23:13:08.834Z,99.90
2017-11-08T23:15:36.285Z,99.90
2017-11-08T23:18:03.706Z,99.90
2017-11-08T23:20:31.914Z,99.90
2017-11-08T23:22:59.349Z,99.90
2017-11-08T23:25:29.209Z,99.90
2017-11-08T23:27:56.746Z,99.90
2017-11-08T23:30:24.200Z,99.90
2017-11-08T23:32:51.660Z,99.90
2017-11-08T23:35:19.086Z,99.90
2017-11-08T23:37:47.288Z,99.90
2017-11-08T23:40:14.972Z,99.90
2017-11-08T23:42:42.407Z,99.90
2017-11-08T23:45:09.867Z,99.90
2017-11-08T23:47:37.303Z,99.90
2017-11-08T23:50:04.733Z,99.90
2017-11-08T23:52:32.941Z,99.90
2017-11-08T23:55:00.889Z,99.90
2017-11-08T23:57:29.085Z,99.90
